Saint Michaelisdonn, Germany

9:16 AM CEST on May 28, 2015 (GMT +0200)
Sprantewetter | | Change Station
CLOSE
Current Station
Personal Weather Station
Location: Brunsbuettel, SCHLESWIG-HOLSTEIN
Elevation: 0 ft
Nearby Weather Stations

Elev 0 ft 53.90 °N, 9.13 °E | Updated 14 minutes ago

Overcast
Overcast
55.6 °F
Feels Like 55.6 °F
N
5.0
Wind Variable Wind from WSW
Gusts 15.0 mph

Today
High -- | Low -- °F
--% Chance of Precip.
Yesterday
High -- | Low -- °F
Precip. -- in
5:02 AM 9:39 PM
Waxing Gibbous, 73% visible
Pressure 29.83 in
Visibility 6.2 miles
Clouds Mostly Cloudy 2500 ft
Overcast 8000 ft
Dew Point 48 °F
Humidity 76%
Rainfall 0.00 in
Snow Depth Not available.
UV 1 out of 12
Pollen Not available.
Air Quality Not available.
Flu Activity Not available.
METAR ETMN 280620Z 22011KT 9999 BKN025 OVC080 12/07 Q1010 BLU BLU

More Conditions Fewer Conditions

Pressure 29.83 in
Visibility 6.2 miles
Clouds Mostly Cloudy 2500 ft
Overcast 8000 ft
Dew Point 48 °F
Humidity 76%
Rainfall 0.00 in
Snow Depth Not available.
UV 1 out of 12
Pollen Not available.
Air Quality Not available.
Flu Activity Not available.
METAR ETMN 280620Z 22011KT 9999 BKN025 OVC080 12/07 Q1010 BLU BLU

More Conditions Fewer Conditions

10-Day Weather Forecast

Almanac

Astronomy

May. 28, 2015 Rise Set
Actual Time
Civil Twilight
Nautical Twilight
Astronomical Twilight
Moon
Length of Visible Light
Length of Day
Tomorrow will be .
, % of the Moon is Illuminated

Today's Extremes

Country Highs Country Lows

Community

WunderPhotos

Upload Photos

1,824,935 photos uploaded!

WunderBlogs® & News

Nearby

Air Quality

  Air Quality AQ Index Pollutant
Not available.

Snow Depth

Station Depth Elevation

Earthquake Activity

City Distance Mag. Time & Date
Minimum magnitude displayed is 2.5.

Coastal Water Temperatures

Place Temperature

Stations

Nearby Weather Stations

Station Location Temp. Windchill Dew Point Humidity Wind Precip. Elev Updated Type